NCAR-RAP Real-Time Weather Data

Output produced by METARs form (12 August 2020  18:44 UTC)
found at http://weather.rap.ucar.edu/surface/
 
KOKC 121752Z 09006KT 10SM SCT018 SCT150 BKN250 28/21 A2998 RMK AO2 SLP138 T02780211 10283 20211 50001
KOKC 121734Z 09006KT 10SM SCT018 SCT150 BKN250 27/21 A2999 RMK AO2 T02720211
KOKC 121659Z 08007KT 10SM BKN015 26/21 A3000 RMK AO2 T02610211
KOKC 121652Z 07007KT 10SM BKN014 26/21 A3000 RMK AO2 SLP144 T02610211
KOKC 121552Z 11008KT 10SM OVC010 24/21 A2999 RMK AO2 SLP140 T02440211
KOKC 121452Z 10008KT 10SM OVC007 23/21 A2998 RMK AO2 SLP138 T02330211 51014
KOKC 121352Z 12006KT 10SM OVC005 22/21 A2997 RMK AO2 SLP134 T02220206
KOKC 121252Z 10008KT 10SM OVC005 22/21 A2996 RMK AO2 SLP129 T02170206
KOKC 121226Z 10009KT 10SM BKN006 21/21 A2995 RMK AO2 T02110206
KOKC 121152Z 11007KT 10SM FEW007 SCT250 21/20 A2994 RMK AO2 SLP122 T02110200 10228 20211 53009
KOKC 121123Z 11007KT 10SM FEW007 SCT250 21/20 A2993 RMK AO2 T02110200
KOKC 121052Z 14005KT 10SM BKN250 21/20 A2992 RMK AO2 SLP115 T02110200
KOKC 120952Z 13007KT 10SM BKN250 22/21 A2992 RMK AO2 SLP113 T02170206
KOKC 120852Z 14005KT 10SM SCT250 22/21 A2991 RMK AO2 SLP111 T02170206 58017
KOKC 120752Z 13004KT 10SM FEW250 22/21 A2993 RMK AO2 SLP119 T02220206
KOKC 120652Z 13006KT 10SM FEW250 22/21 A2995 RMK AO2 SLP125 T02220211
KOKC 120552Z 12008KT 10SM FEW200 FEW250 23/21 A2996 RMK AO2 SLP129 T02280211 10311 20228 403330194 51005
KOKC 120452Z 12010KT 10SM FEW200 FEW250 23/21 A2996 RMK AO2 SLP128 T02330211
KOKC 120352Z 12008KT 10SM FEW200 FEW250 24/22 A2996 RMK AO2 SLP130 T02390217
KOKC 120252Z 11007KT 10SM FEW015 FEW180 FEW250 25/22 A2995 RMK AO2 SLP126 T02500222 53015
KOKC 120152Z 10011KT 10SM FEW045 FEW180 FEW250 26/22 A2993 RMK AO2 SLP119 T02610222
KOKC 120052Z 06013KT 10SM FEW045 FEW250 29/22 A2991 RMK AO2 SLP114 CB DSNT SE T02940222
KOKC 112352Z 06009KT 10SM FEW045 FEW250 32/23 A2990 RMK AO2 SLP109 T03170228 10333 20289 56006
KOKC 112252Z 05009KT 10SM FEW045 FEW250 33/22 A2990 RMK AO2 SLP110 T03280222
KOKC 112152Z 33004KT 10SM FEW045 FEW250 33/21 A2990 RMK AO2 SLP109 CB DSNT SE T03280211
KOKC 112052Z 20003KT 10SM FEW040 FEW100 FEW250 33/21 A2992 RMK AO2 SLP115 CB DSNT SE T03280211 56018
KOKC 111952Z 29005KT 10SM FEW040 FEW150 31/22 A2993 RMK AO2 SLP121 T03110222
KOKC 111852Z 00000KT 10SM FEW030 FEW150 30/21 A2996 RMK AO2 SLP128 T03000211
KOKC 111752Z 00000KT 10SM FEW025 SCT150 SCT250 29/21 A2997 RMK AO2 SLP136 T02890211 10289 20200 58005
KOKC 111652Z 12005KT 10SM FEW020 SCT130 SCT250 27/21 A2998 RMK AO2 SLP136 T02720211
KOKC 111552Z 09006KT 10SM SCT130 BKN150 25/21 A2999 RMK AO2 SLP138 T02500206
KOKC 111452Z 09007KT 10SM FEW060 BKN120 BKN150 24/21 A2999 RMK AO2 SLP139 T02390206 51017
KOKC 111352Z 09004KT 10SM SCT060 SCT120 BKN150 BKN250 22/20 A2998 RMK AO2 LTG DSNT NE AND E SLP137 CB DSNT NE-E T02170200
KOKC 111252Z 09004KT 10SM SCT060CB BKN100 BKN250 21/19 A2997 RMK AO2 SLP132 CB N MOV E VCSH N T02060194
KOKC 111152Z 00000KT 10SM SCT130 BKN180 BKN250 20/19 A2994 RMK AO2 SLP122 60007 70054 T02000189 10206 20194 53007
KOKC 111052Z 10005KT 10SM BKN130 BKN180 20/19 A2993 RMK AO2 SLP117 T02000189
KOKC 110952Z 13006KT 10SM SCT120 SCT180 BKN250 19/19 A2991 RMK AO2 SLP111 T01940189
KOKC 110852Z 13008KT 10SM SCT060 SCT100 BKN180 BKN250 19/18 A2992 RMK AO2 SLP113 CONS LTGICCC DSNT S CB DSNT S MOV E 60007 T01940183 56050
KOKC 110752Z 09010KT 10SM FEW010 SCT060 BKN100 BKN250 19/18 A2994 RMK AO2 LTG DSNT E-S RAE0655 SLP122 CONS LTGICCC DSNT E-S CB DSNT E-S MOV E P0000 T01940183
KOKC 110652Z 01009KT 10SM -RA FEW020 SCT035 BKN060 BKN130 20/19 A2998 RMK AO2 LTG DSNT NE-S TSE51 PRESRR SLP134 CONS LTGICCC DSNT NE-SE-SW CB DSNT NE-SE-SW MOV E P0007 T02000189
KOKC 110603Z 36015KT 4SM -TSRA BR FEW016 BKN037CB OVC065 20/19 A3004 RMK AO2 LTG DSNT ALQDS PRESFR CONS LTGICCCCG OHD TS OHD MOV E P0004 T02000189
KOKC 110548Z 33016G31KT 1 3/4SM R35R/5000VP6000FT +TSRA BR FEW016 BKN032CB OVC060 20/19 A3007 RMK AO2 PK WND 33046/0459 LTG DSNT ALQDS RAB10 TSB10 CONS LTGICCCCG OHD TS OHD MOV E P0039
KOKC 110536Z 31019G26KT 3SM +TSRA BR FEW016 BKN045CB OVC060 21/19 A3008 RMK AO2 PK WND 33046/0459 LTG DSNT SW-N RAB10 TSB10 CONS LTGICCCCG OHD TS OHD MOV E P0027 T02110189
KOKC 110524Z 31020G29KT 2SM R35R/6000VP6000FT +TSRA BR SCT026 BKN045CB OVC080 21/19 A3007 RMK AO2 PK WND 33046/0459 LTG DSNT SW-N RAB10 TSB10 CONS LTGICCCCG OHD TS OHD MOV E P0016 T02060189
KOKC 110510Z COR 32020G41KT 9SM -TSRA SCT050CB BKN080 BKN180 BKN250 23/18 A3005 RMK AO2 PK WND 33046/0459 LTG DSNT SW-N RAB10 TSB10 CONS LTGICCCCG SW-NW-N TS SW-NW-N MOV E P0000 T02280183
KOKC 110452Z 33022G27KT 10SM SCT090 BKN150 BKN180 BKN250 27/19 A3001 RMK AO2 PK WND 35038/0452 LTG DSNT W-N PRESRR SLP144 FRQ LTGICCC DSNT W-N CB DSNT W-N MOV E T02720189
KOKC 110352Z 15010KT 10SM FEW090 SCT170 BKN250 28/19 A2994 RMK AO2 SLP120 OCNL LTGIC DSNT NW-N CB DSNT NW-N MOV E T02830189
KOKC 110252Z 14011KT 10SM FEW130 FEW200 SCT250 29/19 A2993 RMK AO2 SLP117 T02890194 53010
KOKC 110152Z 13010KT 10SM FEW200 FEW250 30/19 A2990 RMK AO2 SLP107 T03000189
KOKC 110052Z 15009KT 10SM FEW250 31/18 A2990 RMK AO2 SLP106 T03110183
KOKC 102352Z 15011G20KT 10SM FEW250 33/19 A2990 RMK AO2 SLP106 T03280189 10350 20328 55012
KOKC 102252Z 18013KT 10SM FEW200 FEW250 34/18 A2990 RMK AO2 SLP105 T03440178
KOKC 102152Z 18012KT 10SM FEW200 SCT250 33/19 A2992 RMK AO2 SLP112 T03330189
KOKC 102052Z 19013G19KT 10SM FEW050 FEW200 SCT250 34/19 A2994 RMK AO2 SLP118 T03440194 58019
KOKC 101952Z 20011G17KT 10SM FEW160 SCT250 34/19 A2996 RMK AO2 SLP127 T03440194
KOKC 101852Z 20012KT 10SM SCT250 34/20 A2998 RMK AO2 SLP132 T03390200